sensor_id;sensor_type;location;lat;lon;timestamp;temperature;humidity
39033;DHT22;24794;51.982;5.878;2023-05-10T00:00:12;14.60;99.90
39033;DHT22;24794;51.982;5.878;2023-05-10T00:01:13;14.60;99.90
39033;DHT22;24794;51.982;5.878;2023-05-10T00:02:14;14.50;99.90
39033;DHT22;24794;51.982;5.878;2023-05-10T00:03:14;14.50;99.90
39033;DHT22;24794;51.982;5.878;2023-05-10T00:04:15;14.50;99.90
39033;DHT22;24794;51.982;5.878;2023-05-10T00:05:15;14.50;99.90
39033;DHT22;24794;51.982;5.878;2023-05-10T00:06:16;14.50;99.90
39033;DHT22;24794;51.982;5.878;2023-05-10T00:07:16;14.50;99.90
39033;DHT22;24794;51.982;5.878;2023-05-10T00:08:20;14.50;99.90
39033;DHT22;24794;51.982;5.878;2023-05-10T00:09:20;14.50;99.90
39033;DHT22;24794;51.982;5.878;2023-05-10T00:10:21;14.50;99.90
39033;DHT22;24794;51.982;5.878;2023-05-10T00:11:21;14.50;99.90
39033;DHT22;24794;51.982;5.878;2023-05-10T00:12:22;14.50;99.90
39033;DHT22;24794;51.982;5.878;2023-05-10T00:13:22;14.50;99.90
39033;DHT22;24794;51.982;5.878;2023-05-10T00:14:23;14.50;99.90
39033;DHT22;24794;51.982;5.878;2023-05-10T00:15:23;14.50;99.90
39033;DHT22;24794;51.982;5.878;2023-05-10T00:16:24;14.50;99.90
39033;DHT22;24794;51.982;5.878;2023-05-10T00:17:24;14.50;99.90
39033;DHT22;24794;51.982;5.878;2023-05-10T00:18:25;14.50;99.90
39033;DHT22;24794;51.982;5.878;2023-05-10T00:19:26;14.50;99.90
39033;DHT22;24794;51.982;5.878;2023-05-10T00:20:26;14.50;99.90
39033;DHT22;24794;51.982;5.878;2023-05-10T00:21:27;14.50;99.90
39033;DHT22;24794;51.982;5.878;2023-05-10T00:22:28;14.50;99.90
39033;DHT22;24794;51.982;5.878;2023-05-10T00:23:29;14.50;99.90
39033;DHT22;24794;51.982;5.878;2023-05-10T00:24:29;14.50;99.90
39033;DHT22;24794;51.982;5.878;2023-05-10T00:25:30;14.50;99.90
39033;DHT22;24794;51.982;5.878;2023-05-10T00:26:30;14.50;99.90
39033;DHT22;24794;51.982;5.878;2023-05-10T00:27:31;14.50;99.90
39033;DHT22;24794;51.982;5.878;2023-05-10T00:28:31;14.50;99.90
39033;DHT22;24794;51.982;5.878;2023-05-10T00:29:32;14.50;99.90
39033;DHT22;24794;51.982;5.878;2023-05-10T00:30:34;14.50;99.90
39033;DHT22;24794;51.982;5.878;2023-05-10T00:31:34;14.50;99.90
39033;DHT22;24794;51.982;5.878;2023-05-10T00:32:35;14.50;99.90
39033;DHT22;24794;51.982;5.878;2023-05-10T00:33:35;14.50;99.90
39033;DHT22;24794;51.982;5.878;2023-05-10T00:34:36;14.50;99.90
39033;DHT22;24794;51.982;5.878;2023-05-10T00:35:36;14.50;99.90
39033;DHT22;24794;51.982;5.878;2023-05-10T00:36:38;14.50;99.90
39033;DHT22;24794;51.982;5.878;2023-05-10T00:37:38;14.50;99.90
39033;DHT22;24794;51.982;5.878;2023-05-10T00:38:39;14.50;99.90
39033;DHT22;24794;51.982;5.878;2023-05-10T00:39:39;14.50;99.90
39033;DHT22;24794;51.982;5.878;2023-05-10T00:40:40;14.50;99.90
39033;DHT22;24794;51.982;5.878;2023-05-10T00:41:41;14.50;99.90
39033;DHT22;24794;51.982;5.878;2023-05-10T00:42:41;14.50;99.90
39033;DHT22;24794;51.982;5.878;2023-05-10T00:43:42;14.50;99.90
39033;DHT22;24794;51.982;5.878;2023-05-10T00:44:42;14.50;99.90
39033;DHT22;24794;51.982;5.878;2023-05-10T00:45:43;14.50;99.90
39033;DHT22;24794;51.982;5.878;2023-05-10T00:46:44;14.50;99.90
39033;DHT22;24794;51.982;5.878;2023-05-10T00:47:45;14.50;99.90
39033;DHT22;24794;51.982;5.878;2023-05-10T00:48:46;14.50;99.90
39033;DHT22;24794;51.982;5.878;2023-05-10T00:49:46;14.50;99.90
39033;DHT22;24794;51.982;5.878;2023-05-10T00:50:47;14.50;99.90
39033;DHT22;24794;51.982;5.878;2023-05-10T00:51:48;14.50;99.90
39033;DHT22;24794;51.982;5.878;2023-05-10T00:52:49;14.40;99.90
39033;DHT22;24794;51.982;5.878;2023-05-10T00:53:50;14.40;99.90
39033;DHT22;24794;51.982;5.878;2023-05-10T00:54:52;14.40;99.90
39033;DHT22;24794;51.982;5.878;2023-05-10T00:55:52;14.40;99.90
39033;DHT22;24794;51.982;5.878;2023-05-10T00:56:53;14.40;99.90
39033;DHT22;24794;51.982;5.878;2023-05-10T00:57:54;14.40;99.90
39033;DHT22;24794;51.982;5.878;2023-05-10T00:58:55;14.40;99.90
39033;DHT22;24794;51.982;5.878;2023-05-10T00:59:57;14.40;99.90
39033;DHT22;24794;51.982;5.878;2023-05-10T01:00:58;14.40;99.90
39033;DHT22;24794;51.982;5.878;2023-05-10T01:01:59;14.40;99.90
39033;DHT22;24794;51.982;5.878;2023-05-10T01:03:00;14.40;99.90
39033;DHT22;24794;51.982;5.878;2023-05-10T01:04:02;14.40;99.90
39033;DHT22;24794;51.982;5.878;2023-05-10T01:05:03;14.40;99.90
39033;DHT22;24794;51.982;5.878;2023-05-10T01:06:04;14.40;99.90
39033;DHT22;24794;51.982;5.878;2023-05-10T01:07:05;14.40;99.90
39033;DHT22;24794;51.982;5.878;2023-05-10T01:08:05;14.40;99.90
39033;DHT22;24794;51.982;5.878;2023-05-10T01:09:06;14.40;99.90
39033;DHT22;24794;51.982;5.878;2023-05-10T01:10:07;14.40;99.90
39033;DHT22;24794;51.982;5.878;2023-05-10T01:11:08;14.40;99.90
39033;DHT22;24794;51.982;5.878;2023-05-10T01:12:09;14.40;99.90
39033;DHT22;24794;51.982;5.878;2023-05-10T01:13:10;14.40;99.90
39033;DHT22;24794;51.982;5.878;2023-05-10T01:14:11;14.40;99.90
39033;DHT22;24794;51.982;5.878;2023-05-10T01:15:12;14.40;99.90
39033;DHT22;24794;51.982;5.878;2023-05-10T01:16:13;14.40;99.90
39033;DHT22;24794;51.982;5.878;2023-05-10T01:17:14;14.40;99.90
39033;DHT22;24794;51.982;5.878;2023-05-10T01:18:16;14.30;99.90
39033;DHT22;24794;51.982;5.878;2023-05-10T01:19:23;14.40;99.90
39033;DHT22;24794;51.982;5.878;2023-05-10T01:20:24;14.40;99.90
39033;DHT22;24794;51.982;5.878;2023-05-10T01:22:50;14.30;99.90
39033;DHT22;24794;51.982;5.878;2023-05-10T01:29:33;14.40;99.90
39033;DHT22;24794;51.982;5.878;2023-05-10T01:32:17;14.30;99.90
39033;DHT22;24794;51.982;5.878;2023-05-10T01:35:21;14.30;99.90
39033;DHT22;24794;51.982;5.878;2023-05-10T01:36:39;14.30;99.90
39033;DHT22;24794;51.982;5.878;2023-05-10T01:37:52;14.30;99.90
39033;DHT22;24794;51.982;5.878;2023-05-10T01:39:02;14.20;99.90
39033;DHT22;24794;51.982;5.878;2023-05-10T01:40:29;14.20;99.90
39033;DHT22;24794;51.982;5.878;2023-05-10T01:42:00;14.20;99.90
39033;DHT22;24794;51.982;5.878;2023-05-10T01:43:05;14.20;99.90
39033;DHT22;24794;51.982;5.878;2023-05-10T01:44:23;14.20;99.90
39033;DHT22;24794;51.982;5.878;2023-05-10T01:46:37;14.20;99.90
39033;DHT22;24794;51.982;5.878;2023-05-10T01:47:46;14.20;99.90
39033;DHT22;24794;51.982;5.878;2023-05-10T01:48:55;14.20;99.90
39033;DHT22;24794;51.982;5.878;2023-05-10T01:50:01;14.20;99.90
39033;DHT22;24794;51.982;5.878;2023-05-10T01:51:02;14.20;99.90
39033;DHT22;24794;51.982;5.878;2023-05-10T01:52:09;14.20;99.90
39033;DHT22;24794;51.982;5.878;2023-05-10T01:53:12;14.20;99.90
39033;DHT22;24794;51.982;5.878;2023-05-10T01:54:14;14.20;99.90
39033;DHT22;24794;51.982;5.878;2023-05-10T01:55:20;14.20;99.90
39033;DHT22;24794;51.982;5.878;2023-05-10T01:56:24;14.20;99.90
39033;DHT22;24794;51.982;5.878;2023-05-10T01:57:29;14.20;99.90
39033;DHT22;24794;51.982;5.878;2023-05-10T01:58:32;14.20;99.90
39033;DHT22;24794;51.982;5.878;2023-05-10T01:59:35;14.20;99.90
39033;DHT22;24794;51.982;5.878;2023-05-10T02:00:40;14.20;99.90
39033;DHT22;24794;51.982;5.878;2023-05-10T02:01:43;14.20;99.90
39033;DHT22;24794;51.982;5.878;2023-05-10T02:02:47;14.20;99.90
39033;DHT22;24794;51.982;5.878;2023-05-10T02:03:50;14.20;99.90
39033;DHT22;24794;51.982;5.878;2023-05-10T02:04:53;14.20;99.90
39033;DHT22;24794;51.982;5.878;2023-05-10T02:05:56;14.20;99.90
39033;DHT22;24794;51.982;5.878;2023-05-10T02:06:57;14.20;99.90
39033;DHT22;24794;51.982;5.878;2023-05-10T02:07:58;14.20;99.90
39033;DHT22;24794;51.982;5.878;2023-05-10T02:09:02;14.20;99.90
39033;DHT22;24794;51.982;5.878;2023-05-10T02:10:06;14.20;99.90
39033;DHT22;24794;51.982;5.878;2023-05-10T02:11:09;14.20;99.90
39033;DHT22;24794;51.982;5.878;2023-05-10T02:12:13;14.20;99.90
39033;DHT22;24794;51.982;5.878;2023-05-10T02:13:16;14.20;99.90
39033;DHT22;24794;51.982;5.878;2023-05-10T02:14:18;14.20;99.90
39033;DHT22;24794;51.982;5.878;2023-05-10T02:15:22;14.20;99.90
39033;DHT22;24794;51.982;5.878;2023-05-10T02:16:25;14.20;99.90
39033;DHT22;24794;51.982;5.878;2023-05-10T02:17:27;14.20;99.90
39033;DHT22;24794;51.982;5.878;2023-05-10T02:18:29;14.20;99.90
39033;DHT22;24794;51.982;5.878;2023-05-10T02:19:32;14.20;99.90
39033;DHT22;24794;51.982;5.878;2023-05-10T02:20:33;14.20;99.90
39033;DHT22;24794;51.982;5.878;2023-05-10T02:21:35;14.20;99.90
39033;DHT22;24794;51.982;5.878;2023-05-10T02:22:36;14.20;99.90
39033;DHT22;24794;51.982;5.878;2023-05-10T02:23:38;14.20;99.90
39033;DHT22;24794;51.982;5.878;2023-05-10T02:24:40;14.20;99.90
39033;DHT22;24794;51.982;5.878;2023-05-10T02:25:43;14.20;99.90
39033;DHT22;24794;51.982;5.878;2023-05-10T02:26:45;14.20;99.90
39033;DHT22;24794;51.982;5.878;2023-05-10T02:27:47;14.20;99.90
39033;DHT22;24794;51.982;5.878;2023-05-10T02:28:49;14.20;99.90
39033;DHT22;24794;51.982;5.878;2023-05-10T02:29:51;14.20;99.90
39033;DHT22;24794;51.982;5.878;2023-05-10T02:30:53;14.20;99.90
39033;DHT22;24794;51.982;5.878;2023-05-10T02:31:55;14.20;99.90
39033;DHT22;24794;51.982;5.878;2023-05-10T02:32:57;14.20;99.90
39033;DHT22;24794;51.982;5.878;2023-05-10T02:34:00;14.20;99.90
39033;DHT22;24794;51.982;5.878;2023-05-10T02:35:02;14.20;99.90
39033;DHT22;24794;51.982;5.878;2023-05-10T02:36:04;14.20;99.90
39033;DHT22;24794;51.982;5.878;2023-05-10T02:37:05;14.20;99.90
39033;DHT22;24794;51.982;5.878;2023-05-10T02:38:07;14.20;99.90
39033;DHT22;24794;51.982;5.878;2023-05-10T02:39:09;14.20;99.90
39033;DHT22;24794;51.982;5.878;2023-05-10T02:40:13;14.20;99.90
39033;DHT22;24794;51.982;5.878;2023-05-10T02:41:15;14.20;99.90
39033;DHT22;24794;51.982;5.878;2023-05-10T02:42:20;14.20;99.90
39033;DHT22;24794;51.982;5.878;2023-05-10T02:43:22;14.20;99.90
39033;DHT22;24794;51.982;5.878;2023-05-10T02:44:23;14.20;99.90
39033;DHT22;24794;51.982;5.878;2023-05-10T02:45:29;14.10;99.90
39033;DHT22;24794;51.982;5.878;2023-05-10T02:46:30;14.10;99.90
39033;DHT22;24794;51.982;5.878;2023-05-10T02:47:31;14.10;99.90
39033;DHT22;24794;51.982;5.878;2023-05-10T02:48:32;14.10;99.90
39033;DHT22;24794;51.982;5.878;2023-05-10T02:49:32;14.10;99.90
39033;DHT22;24794;51.982;5.878;2023-05-10T02:50:33;14.10;99.90
39033;DHT22;24794;51.982;5.878;2023-05-10T02:51:39;14.10;99.90
39033;DHT22;24794;51.982;5.878;2023-05-10T02:52:46;14.10;99.90
39033;DHT22;24794;51.982;5.878;2023-05-10T02:53:49;14.10;99.90
39033;DHT22;24794;51.982;5.878;2023-05-10T02:54:54;14.10;99.90
39033;DHT22;24794;51.982;5.878;2023-05-10T02:55:58;14.10;99.90
39033;DHT22;24794;51.982;5.878;2023-05-10T02:57:04;14.00;99.90
39033;DHT22;24794;51.982;5.878;2023-05-10T02:58:05;14.00;99.90
39033;DHT22;24794;51.982;5.878;2023-05-10T02:59:06;14.00;99.90
39033;DHT22;24794;51.982;5.878;2023-05-10T03:00:07;14.00;99.90
39033;DHT22;24794;51.982;5.878;2023-05-10T03:01:07;14.00;99.90
39033;DHT22;24794;51.982;5.878;2023-05-10T03:02:09;14.00;99.90
39033;DHT22;24794;51.982;5.878;2023-05-10T03:03:10;14.00;99.90
39033;DHT22;24794;51.982;5.878;2023-05-10T03:04:11;14.00;99.90
39033;DHT22;24794;51.982;5.878;2023-05-10T03:05:11;14.00;99.90
39033;DHT22;24794;51.982;5.878;2023-05-10T03:06:12;14.00;99.90
39033;DHT22;24794;51.982;5.878;2023-05-10T03:07:13;14.00;99.90
39033;DHT22;24794;51.982;5.878;2023-05-10T03:08:13;14.00;99.90
39033;DHT22;24794;51.982;5.878;2023-05-10T03:09:14;14.00;99.90
39033;DHT22;24794;51.982;5.878;2023-05-10T03:10:15;14.00;99.90
39033;DHT22;24794;51.982;5.878;2023-05-10T03:15:00;14.00;99.90
39033;DHT22;24794;51.982;5.878;2023-05-10T03:16:12;14.00;99.90
39033;DHT22;24794;51.982;5.878;2023-05-10T03:17:29;14.00;99.90
39033;DHT22;24794;51.982;5.878;2023-05-10T03:18:38;13.90;99.90
39033;DHT22;24794;51.982;5.878;2023-05-10T03:19:53;13.90;99.90
39033;DHT22;24794;51.982;5.878;2023-05-10T03:21:00;13.90;99.90
39033;DHT22;24794;51.982;5.878;2023-05-10T03:22:07;13.90;99.90
39033;DHT22;24794;51.982;5.878;2023-05-10T03:24:20;13.90;99.90
39033;DHT22;24794;51.982;5.878;2023-05-10T03:25:23;13.90;99.90
39033;DHT22;24794;51.982;5.878;2023-05-10T03:26:26;13.90;99.90
39033;DHT22;24794;51.982;5.878;2023-05-10T03:27:28;13.90;99.90
39033;DHT22;24794;51.982;5.878;2023-05-10T03:28:31;13.90;99.90
39033;DHT22;24794;51.982;5.878;2023-05-10T03:29:33;13.90;99.90
39033;DHT22;24794;51.982;5.878;2023-05-10T03:30:34;13.90;99.90
39033;DHT22;24794;51.982;5.878;2023-05-10T03:31:35;13.90;99.90
39033;DHT22;24794;51.982;5.878;2023-05-10T03:32:36;13.90;99.90
39033;DHT22;24794;51.982;5.878;2023-05-10T03:33:49;13.90;99.90
39033;DHT22;24794;51.982;5.878;2023-05-10T03:34:50;13.90;99.90
39033;DHT22;24794;51.982;5.878;2023-05-10T03:35:50;13.90;99.90
39033;DHT22;24794;51.982;5.878;2023-05-10T03:36:51;13.90;99.90
39033;DHT22;24794;51.982;5.878;2023-05-10T03:37:52;13.90;99.90
39033;DHT22;24794;51.982;5.878;2023-05-10T03:38:52;13.80;99.90
39033;DHT22;24794;51.982;5.878;2023-05-10T03:39:53;13.80;99.90
39033;DHT22;24794;51.982;5.878;2023-05-10T03:40:53;13.80;99.90
39033;DHT22;24794;51.982;5.878;2023-05-10T03:41:54;13.80;99.90
39033;DHT22;24794;51.982;5.878;2023-05-10T03:42:55;13.80;99.90
39033;DHT22;24794;51.982;5.878;2023-05-10T03:43:55;13.80;99.90
39033;DHT22;24794;51.982;5.878;2023-05-10T03:44:56;13.80;99.90
39033;DHT22;24794;51.982;5.878;2023-05-10T03:45:56;13.80;99.90
39033;DHT22;24794;51.982;5.878;2023-05-10T03:46:57;13.80;99.90
39033;DHT22;24794;51.982;5.878;2023-05-10T03:47:58;13.80;99.90
39033;DHT22;24794;51.982;5.878;2023-05-10T03:48:58;13.80;99.90
39033;DHT22;24794;51.982;5.878;2023-05-10T03:49:59;13.80;99.90
39033;DHT22;24794;51.982;5.878;2023-05-10T03:51:00;13.80;99.90
39033;DHT22;24794;51.982;5.878;2023-05-10T03:52:00;13.80;99.90
39033;DHT22;24794;51.982;5.878;2023-05-10T03:53:01;13.70;99.90
39033;DHT22;24794;51.982;5.878;2023-05-10T03:54:02;13.70;99.90
39033;DHT22;24794;51.982;5.878;2023-05-10T03:55:03;13.70;99.90
39033;DHT22;24794;51.982;5.878;2023-05-10T03:56:04;13.70;99.90
39033;DHT22;24794;51.982;5.878;2023-05-10T03:57:04;13.70;99.90
39033;DHT22;24794;51.982;5.878;2023-05-10T03:58:05;13.70;99.90
39033;DHT22;24794;51.982;5.878;2023-05-10T03:59:05;13.70;99.90
39033;DHT22;24794;51.982;5.878;2023-05-10T04:00:08;13.70;99.90
39033;DHT22;24794;51.982;5.878;2023-05-10T04:01:09;13.70;99.90
39033;DHT22;24794;51.982;5.878;2023-05-10T04:02:09;13.70;99.90
39033;DHT22;24794;51.982;5.878;2023-05-10T04:03:10;13.70;99.90
39033;DHT22;24794;51.982;5.878;2023-05-10T04:04:11;13.70;99.90
39033;DHT22;24794;51.982;5.878;2023-05-10T04:05:12;13.70;99.90
39033;DHT22;24794;51.982;5.878;2023-05-10T04:06:12;13.70;99.90
39033;DHT22;24794;51.982;5.878;2023-05-10T04:07:13;13.70;99.90
39033;DHT22;24794;51.982;5.878;2023-05-10T04:08:14;13.70;99.90
39033;DHT22;24794;51.982;5.878;2023-05-10T04:09:16;13.70;99.90
39033;DHT22;24794;51.982;5.878;2023-05-10T04:10:17;13.70;99.90
39033;DHT22;24794;51.982;5.878;2023-05-10T04:11:18;13.70;99.90
39033;DHT22;24794;51.982;5.878;2023-05-10T04:12:18;13.70;99.90
39033;DHT22;24794;51.982;5.878;2023-05-10T04:13:19;13.70;99.90
39033;DHT22;24794;51.982;5.878;2023-05-10T04:14:19;13.70;99.90
39033;DHT22;24794;51.982;5.878;2023-05-10T04:15:20;13.70;99.90
39033;DHT22;24794;51.982;5.878;2023-05-10T04:16:21;13.70;99.90
39033;DHT22;24794;51.982;5.878;2023-05-10T04:17:21;13.70;99.90
39033;DHT22;24794;51.982;5.878;2023-05-10T04:18:22;13.70;99.90
39033;DHT22;24794;51.982;5.878;2023-05-10T04:19:22;13.70;99.90
39033;DHT22;24794;51.982;5.878;2023-05-10T04:20:23;13.70;99.90
39033;DHT22;24794;51.982;5.878;2023-05-10T04:21:23;13.70;99.90
39033;DHT22;24794;51.982;5.878;2023-05-10T04:22:24;13.70;99.90
39033;DHT22;24794;51.982;5.878;2023-05-10T04:23:24;13.80;99.90
39033;DHT22;24794;51.982;5.878;2023-05-10T04:24:25;13.80;99.90
39033;DHT22;24794;51.982;5.878;2023-05-10T04:25:26;13.70;99.90
39033;DHT22;24794;51.982;5.878;2023-05-10T04:26:26;13.70;99.90
39033;DHT22;24794;51.982;5.878;2023-05-10T04:27:27;13.70;99.90
39033;DHT22;24794;51.982;5.878;2023-05-10T04:28:27;13.70;99.90
39033;DHT22;24794;51.982;5.878;2023-05-10T04:29:28;13.70;99.90
39033;DHT22;24794;51.982;5.878;2023-05-10T04:30:29;13.70;99.90
39033;DHT22;24794;51.982;5.878;2023-05-10T04:31:29;13.70;99.90
39033;DHT22;24794;51.982;5.878;2023-05-10T04:32:30;13.70;99.90
39033;DHT22;24794;51.982;5.878;2023-05-10T04:33:31;13.70;99.90
39033;DHT22;24794;51.982;5.878;2023-05-10T04:34:32;13.70;99.90
39033;DHT22;24794;51.982;5.878;2023-05-10T04:35:34;13.70;99.90
39033;DHT22;24794;51.982;5.878;2023-05-10T04:36:35;13.70;99.90
39033;DHT22;24794;51.982;5.878;2023-05-10T04:37:36;13.70;99.90
39033;DHT22;24794;51.982;5.878;2023-05-10T04:38:37;13.70;99.90
39033;DHT22;24794;51.982;5.878;2023-05-10T04:39:37;13.70;99.90
39033;DHT22;24794;51.982;5.878;2023-05-10T04:40:38;13.60;99.90
39033;DHT22;24794;51.982;5.878;2023-05-10T04:41:38;13.70;99.90
39033;DHT22;24794;51.982;5.878;2023-05-10T04:42:43;13.70;99.90
39033;DHT22;24794;51.982;5.878;2023-05-10T04:43:44;13.60;99.90
39033;DHT22;24794;51.982;5.878;2023-05-10T04:44:44;13.60;99.90
39033;DHT22;24794;51.982;5.878;2023-05-10T04:45:45;13.60;99.90
39033;DHT22;24794;51.982;5.878;2023-05-10T04:46:45;13.60;99.90
39033;DHT22;24794;51.982;5.878;2023-05-10T04:47:46;13.70;99.90
39033;DHT22;24794;51.982;5.878;2023-05-10T04:48:46;13.70;99.90
39033;DHT22;24794;51.982;5.878;2023-05-10T04:49:47;13.70;99.90
39033;DHT22;24794;51.982;5.878;2023-05-10T04:50:47;13.70;99.90
39033;DHT22;24794;51.982;5.878;2023-05-10T04:51:48;13.70;99.90
39033;DHT22;24794;51.982;5.878;2023-05-10T04:52:48;13.70;99.90
39033;DHT22;24794;51.982;5.878;2023-05-10T04:53:49;13.70;99.90
39033;DHT22;24794;51.982;5.878;2023-05-10T04:54:49;13.70;99.90
39033;DHT22;24794;51.982;5.878;2023-05-10T04:55:51;13.70;99.90
39033;DHT22;24794;51.982;5.878;2023-05-10T04:56:51;13.70;99.90
39033;DHT22;24794;51.982;5.878;2023-05-10T04:57:52;13.70;99.90
39033;DHT22;24794;51.982;5.878;2023-05-10T04:58:53;13.70;99.90
39033;DHT22;24794;51.982;5.878;2023-05-10T04:59:53;13.70;99.90
39033;DHT22;24794;51.982;5.878;2023-05-10T05:00:54;13.80;99.90
39033;DHT22;24794;51.982;5.878;2023-05-10T05:01:54;13.80;99.90
39033;DHT22;24794;51.982;5.878;2023-05-10T05:02:55;13.70;99.90
39033;DHT22;24794;51.982;5.878;2023-05-10T05:03:55;13.70;99.90
39033;DHT22;24794;51.982;5.878;2023-05-10T05:04:56;13.70;99.90
39033;DHT22;24794;51.982;5.878;2023-05-10T05:05:58;13.70;99.90
39033;DHT22;24794;51.982;5.878;2023-05-10T05:06:58;13.80;99.90
39033;DHT22;24794;51.982;5.878;2023-05-10T05:07:59;13.80;99.90
39033;DHT22;24794;51.982;5.878;2023-05-10T05:08:59;13.80;99.90
39033;DHT22;24794;51.982;5.878;2023-05-10T05:10:00;13.80;99.90
39033;DHT22;24794;51.982;5.878;2023-05-10T05:11:00;13.80;99.90
39033;DHT22;24794;51.982;5.878;2023-05-10T05:12:01;13.80;99.90
39033;DHT22;24794;51.982;5.878;2023-05-10T05:13:01;13.80;99.90
39033;DHT22;24794;51.982;5.878;2023-05-10T05:14:02;13.80;99.90
39033;DHT22;24794;51.982;5.878;2023-05-10T05:15:02;13.80;99.90
39033;DHT22;24794;51.982;5.878;2023-05-10T05:16:04;13.90;99.90
39033;DHT22;24794;51.982;5.878;2023-05-10T05:17:05;13.90;99.90
39033;DHT22;24794;51.982;5.878;2023-05-10T05:18:06;13.90;99.90
39033;DHT22;24794;51.982;5.878;2023-05-10T05:19:06;13.90;99.90
39033;DHT22;24794;51.982;5.878;2023-05-10T05:20:08;13.80;99.90
39033;DHT22;24794;51.982;5.878;2023-05-10T05:21:15;13.90;99.90
39033;DHT22;24794;51.982;5.878;2023-05-10T05:22:16;13.80;99.90
39033;DHT22;24794;51.982;5.878;2023-05-10T05:23:17;13.80;99.90
39033;DHT22;24794;51.982;5.878;2023-05-10T05:24:18;13.80;99.90
39033;DHT22;24794;51.982;5.878;2023-05-10T05:25:19;13.80;99.90
39033;DHT22;24794;51.982;5.878;2023-05-10T05:26:19;13.80;99.90
39033;DHT22;24794;51.982;5.878;2023-05-10T05:27:20;13.80;99.90
39033;DHT22;24794;51.982;5.878;2023-05-10T05:28:24;13.80;99.90
39033;DHT22;24794;51.982;5.878;2023-05-10T05:29:25;13.80;99.90
39033;DHT22;24794;51.982;5.878;2023-05-10T05:30:25;13.80;99.90
39033;DHT22;24794;51.982;5.878;2023-05-10T05:31:26;13.80;99.90
39033;DHT22;24794;51.982;5.878;2023-05-10T05:32:26;13.80;99.90
39033;DHT22;24794;51.982;5.878;2023-05-10T05:33:27;13.80;99.90
39033;DHT22;24794;51.982;5.878;2023-05-10T05:34:27;13.80;99.90
39033;DHT22;24794;51.982;5.878;2023-05-10T05:35:28;13.80;99.90
39033;DHT22;24794;51.982;5.878;2023-05-10T05:36:28;13.80;99.90
39033;DHT22;24794;51.982;5.878;2023-05-10T05:37:29;13.80;99.90
39033;DHT22;24794;51.982;5.878;2023-05-10T05:38:29;13.90;99.90
39033;DHT22;24794;51.982;5.878;2023-05-10T05:39:30;13.90;99.90
39033;DHT22;24794;51.982;5.878;2023-05-10T05:40:30;13.90;99.90
39033;DHT22;24794;51.982;5.878;2023-05-10T05:41:31;13.90;99.90
39033;DHT22;24794;51.982;5.878;2023-05-10T05:42:32;13.90;99.90
39033;DHT22;24794;51.982;5.878;2023-05-10T05:43:32;13.90;99.90
39033;DHT22;24794;51.982;5.878;2023-05-10T05:44:33;13.90;99.90
39033;DHT22;24794;51.982;5.878;2023-05-10T05:45:33;13.90;99.90
39033;DHT22;24794;51.982;5.878;2023-05-10T05:46:34;14.00;99.90
39033;DHT22;24794;51.982;5.878;2023-05-10T05:47:35;14.00;99.90
39033;DHT22;24794;51.982;5.878;2023-05-10T05:48:35;14.00;99.90
39033;DHT22;24794;51.982;5.878;2023-05-10T05:49:36;14.00;99.90
39033;DHT22;24794;51.982;5.878;2023-05-10T05:50:36;14.00;99.90
39033;DHT22;24794;51.982;5.878;2023-05-10T05:51:37;14.00;99.90
39033;DHT22;24794;51.982;5.878;2023-05-10T05:52:37;14.00;99.90
39033;DHT22;24794;51.982;5.878;2023-05-10T05:53:38;14.00;99.90
39033;DHT22;24794;51.982;5.878;2023-05-10T05:54:38;14.00;99.90
39033;DHT22;24794;51.982;5.878;2023-05-10T05:55:39;14.00;99.90
39033;DHT22;24794;51.982;5.878;2023-05-10T05:56:39;14.00;99.90
39033;DHT22;24794;51.982;5.878;2023-05-10T05:57:40;14.00;99.90
39033;DHT22;24794;51.982;5.878;2023-05-10T05:58:40;14.00;99.90
39033;DHT22;24794;51.982;5.878;2023-05-10T05:59:41;14.00;99.90
39033;DHT22;24794;51.982;5.878;2023-05-10T06:00:44;14.00;99.90
39033;DHT22;24794;51.982;5.878;2023-05-10T06:01:45;14.00;99.90
39033;DHT22;24794;51.982;5.878;2023-05-10T06:02:45;14.00;99.90
39033;DHT22;24794;51.982;5.878;2023-05-10T06:03:46;14.00;99.90
39033;DHT22;24794;51.982;5.878;2023-05-10T06:04:47;14.00;99.90
39033;DHT22;24794;51.982;5.878;2023-05-10T06:05:47;14.00;99.90
39033;DHT22;24794;51.982;5.878;2023-05-10T06:06:48;14.00;99.90
39033;DHT22;24794;51.982;5.878;2023-05-10T06:07:49;14.00;99.90
39033;DHT22;24794;51.982;5.878;2023-05-10T06:08:49;14.00;99.90
39033;DHT22;24794;51.982;5.878;2023-05-10T06:09:50;14.00;99.90
39033;DHT22;24794;51.982;5.878;2023-05-10T06:10:50;14.00;99.90
39033;DHT22;24794;51.982;5.878;2023-05-10T06:11:51;14.00;99.90
39033;DHT22;24794;51.982;5.878;2023-05-10T06:12:51;14.00;99.90
39033;DHT22;24794;51.982;5.878;2023-05-10T06:13:53;13.90;99.90
39033;DHT22;24794;51.982;5.878;2023-05-10T06:14:53;14.00;99.90
39033;DHT22;24794;51.982;5.878;2023-05-10T06:15:54;13.90;99.90
39033;DHT22;24794;51.982;5.878;2023-05-10T06:16:54;13.90;99.90
39033;DHT22;24794;51.982;5.878;2023-05-10T06:17:55;13.90;99.90
39033;DHT22;24794;51.982;5.878;2023-05-10T06:18:55;13.90;99.90
39033;DHT22;24794;51.982;5.878;2023-05-10T06:19:56;13.90;99.90
39033;DHT22;24794;51.982;5.878;2023-05-10T06:20:56;13.90;99.90
39033;DHT22;24794;51.982;5.878;2023-05-10T06:21:57;13.90;99.90
39033;DHT22;24794;51.982;5.878;2023-05-10T06:22:58;13.90;99.90
39033;DHT22;24794;51.982;5.878;2023-05-10T06:23:59;13.90;99.90
39033;DHT22;24794;51.982;5.878;2023-05-10T06:24:59;13.90;99.90
39033;DHT22;24794;51.982;5.878;2023-05-10T06:26:00;13.90;99.90
39033;DHT22;24794;51.982;5.878;2023-05-10T06:27:00;13.90;99.90
39033;DHT22;24794;51.982;5.878;2023-05-10T06:28:01;14.00;99.90
39033;DHT22;24794;51.982;5.878;2023-05-10T06:29:01;13.90;99.90
39033;DHT22;24794;51.982;5.878;2023-05-10T06:30:03;13.90;99.90
39033;DHT22;24794;51.982;5.878;2023-05-10T06:31:04;13.90;99.90
39033;DHT22;24794;51.982;5.878;2023-05-10T06:32:05;13.90;99.90
39033;DHT22;24794;51.982;5.878;2023-05-10T06:33:05;13.90;99.90
39033;DHT22;24794;51.982;5.878;2023-05-10T06:34:06;13.90;99.90
39033;DHT22;24794;51.982;5.878;2023-05-10T06:35:08;13.90;99.90
39033;DHT22;24794;51.982;5.878;2023-05-10T06:36:09;13.90;99.90
39033;DHT22;24794;51.982;5.878;2023-05-10T06:37:09;13.90;99.90
39033;DHT22;24794;51.982;5.878;2023-05-10T06:38:10;13.90;99.90
39033;DHT22;24794;51.982;5.878;2023-05-10T06:39:11;13.90;99.90
39033;DHT22;24794;51.982;5.878;2023-05-10T06:40:12;13.90;99.90
39033;DHT22;24794;51.982;5.878;2023-05-10T06:41:13;13.90;99.90
39033;DHT22;24794;51.982;5.878;2023-05-10T06:42:13;13.90;99.90
39033;DHT22;24794;51.982;5.878;2023-05-10T06:43:14;13.90;99.90
39033;DHT22;24794;51.982;5.878;2023-05-10T06:44:14;13.90;99.90
39033;DHT22;24794;51.982;5.878;2023-05-10T06:45:15;13.90;99.90
39033;DHT22;24794;51.982;5.878;2023-05-10T06:46:16;14.00;99.90